Time;durP1;ratioP1;P1;durP2;ratioP2;P2;SDS_P1;SDS_P2;PMS_P1;PMS_P2;Temp;Humidity;BMP_temperature;BMP_pressure;BME280_temperature;BME280_humidity;BME280_pressure;Samples;Min_cycle;Max_cycle;Signal;HPM_P1;HPM_P2
2023/05/20 00:01:57;;;;;;;;;;;;;;;21.03;44.27;102516.31;5033431;28;20388;-69
2023/05/20 00:04:22;;;;;;;;;;;;;;;21.01;44.23;102515.56;5053711;28;19917;-69
2023/05/20 00:06:47;;;;;;;;;;;;;;;21.01;43.98;102510.16;5040055;28;19905;-69
2023/05/20 00:09:13;;;;;;;;;;;;;;;20.99;44.00;102517.59;5045680;28;19920;-69
2023/05/20 00:11:38;;;;;;;;;;;;;;;20.99;44.16;102517.59;5036371;28;19913;-69
2023/05/20 00:14:03;;;;;;;;;;;;;;;20.98;44.18;102514.00;5031350;28;19925;-69
2023/05/20 00:16:28;;;;;;;;;;;;;;;20.99;43.83;102520.28;5030561;28;19914;-69
2023/05/20 00:18:55;;;;;;;;;;;;;;;20.97;43.82;102515.00;5032630;28;19913;-69
2023/05/20 00:21:20;;;;;;;;;;;;;;;20.96;43.83;102514.16;5029846;28;19918;-69
2023/05/20 00:23:45;;;;;;;;;;;;;;;20.94;43.96;102508.06;5042018;28;19928;-69
2023/05/20 00:26:11;;;;;;;;;;;;;;;20.94;44.05;102509.88;5041903;28;19913;-69
2023/05/20 00:28:36;;;;;;;;;;;;;;;20.94;43.94;102515.28;5042972;28;20337;-69
2023/05/20 00:31:01;;;;;;;;;;;;;;;20.92;43.84;102512.72;5036796;28;19922;-69
2023/05/20 00:33:26;;;;;;;;;;;;;;;20.91;43.71;102507.47;5028667;28;19917;-69
2023/05/20 00:35:51;;;;;;;;;;;;;;;20.89;43.91;102515.72;5029997;28;20970;-69
2023/05/20 00:38:16;;;;;;;;;;;;;;;20.89;43.67;102509.47;5030397;28;19972;-69
2023/05/20 00:40:42;;;;;;;;;;;;;;;20.87;43.93;102500.66;5031394;28;19956;-69
2023/05/20 00:43:07;;;;;;;;;;;;;;;20.87;43.91;102511.47;5042638;28;19940;-69
2023/05/20 00:45:32;;;;;;;;;;;;;;;20.86;43.90;102516.03;5031675;28;19917;-69
2023/05/20 00:48:00;;;;;;;;;;;;;;;20.85;43.91;102508.88;5030728;28;19913;-69
2023/05/20 00:50:25;;;;;;;;;;;;;;;20.84;43.72;102512.59;5040963;28;19913;-69
2023/05/20 00:52:50;;;;;;;;;;;;;;;20.83;43.64;102507.34;5040741;28;19932;-69
2023/05/20 00:55:16;;;;;;;;;;;;;;;20.82;43.79;102511.91;5029057;28;20008;-69
2023/05/20 00:57:41;;;;;;;;;;;;;;;20.81;43.63;102507.47;5036432;28;19920;-69
2023/05/20 01:00:07;;;;;;;;;;;;;;;20.81;43.87;102499.34;5030805;28;19917;-69
2023/05/20 01:02:32;;;;;;;;;;;;;;;20.81;43.65;102493.09;5028993;28;19924;-69
2023/05/20 01:04:57;;;;;;;;;;;;;;;20.81;43.83;102496.66;5041600;28;19999;-68
2023/05/20 01:07:22;;;;;;;;;;;;;;;20.80;43.51;102489.53;5031030;28;19921;-69
2023/05/20 01:09:48;;;;;;;;;;;;;;;20.79;43.49;102493.25;5030525;28;19917;-69
2023/05/20 01:12:28;;;;;;;;;;;;;;;20.80;43.78;102491.41;5015176;28;19914;-69
2023/05/20 01:14:55;;;;;;;;;;;;;;;20.79;43.91;102492.41;5031417;28;19921;-68
2023/05/20 01:17:21;;;;;;;;;;;;;;;20.79;43.72;102489.69;5040903;28;19914;-68
2023/05/20 01:19:47;;;;;;;;;;;;;;;20.78;43.90;102491.56;5035101;28;20316;-68
2023/05/20 01:22:13;;;;;;;;;;;;;;;20.77;43.38;102484.41;5032526;28;20011;-68
2023/05/20 01:24:40;;;;;;;;;;;;;;;20.78;43.77;102486.16;5036131;28;20282;-68
2023/05/20 01:27:09;;;;;;;;;;;;;;;20.78;43.76;102482.59;5032642;28;19917;-68
2023/05/20 01:29:35;;;;;;;;;;;;;;;20.77;43.77;102483.56;5031250;28;19913;-68
2023/05/20 01:32:00;;;;;;;;;;;;;;;20.76;43.57;102485.41;5031130;28;19913;-68
2023/05/20 01:34:25;;;;;;;;;;;;;;;20.76;43.70;102476.47;5041078;28;19923;-68
2023/05/20 01:36:51;;;;;;;;;;;;;;;20.75;43.35;102478.31;5026633;28;19961;-68
2023/05/20 01:39:16;;;;;;;;;;;;;;;20.75;43.47;102481.00;5026919;28;19945;-68
2023/05/20 01:41:41;;;;;;;;;;;;;;;20.74;43.74;102475.75;5031597;28;19918;-68
2023/05/20 01:44:07;;;;;;;;;;;;;;;20.73;43.72;102477.63;5027468;28;19918;-68
2023/05/20 01:46:33;;;;;;;;;;;;;;;20.74;43.74;102467.66;5032790;28;19960;-68
2023/05/20 01:48:58;;;;;;;;;;;;;;;20.72;43.61;102468.63;5029469;28;19913;-68
2023/05/20 01:51:23;;;;;;;;;;;;;;;20.72;43.43;102467.78;5036028;28;19925;-68
2023/05/20 01:53:48;;;;;;;;;;;;;;;20.72;43.62;102470.47;5031824;28;19917;-68
2023/05/20 01:56:13;;;;;;;;;;;;;;;20.72;43.61;102470.47;5029342;28;19921;-68
2023/05/20 01:58:39;;;;;;;;;;;;;;;20.70;43.31;102462.53;5033546;28;19913;-68
2023/05/20 02:01:04;;;;;;;;;;;;;;;20.70;43.32;102464.38;5033321;28;19917;-68
2023/05/20 02:03:29;;;;;;;;;;;;;;;20.69;43.34;102468.09;5027924;28;19917;-68
2023/05/20 02:05:54;;;;;;;;;;;;;;;20.70;43.70;102458.97;5031302;28;19960;-68
2023/05/20 02:08:20;;;;;;;;;;;;;;;20.68;43.67;102459.09;5040989;28;19953;-68
2023/05/20 02:10:46;;;;;;;;;;;;;;;20.69;43.45;102468.94;5028682;28;19936;-68
2023/05/20 02:13:12;;;;;;;;;;;;;;;20.68;43.63;102463.66;5031247;28;19918;-70
2023/05/20 02:15:40;;;;;;;;;;;;;;;20.67;43.52;102462.81;5034955;28;19917;-70
2023/05/20 02:18:07;;;;;;;;;;;;;;;20.66;43.58;102458.41;5053559;28;19923;-68
2023/05/20 02:20:34;;;;;;;;;;;;;;;20.65;43.41;102464.81;5055337;28;19921;-70
2023/05/20 02:22:59;;;;;;;;;;;;;;;20.65;43.38;102464.81;5021186;28;19917;-70
2023/05/20 02:25:25;;;;;;;;;;;;;;;20.65;43.48;102469.38;5034954;28;19928;-70
2023/05/20 02:27:50;;;;;;;;;;;;;;;20.64;43.33;102463.06;5049131;28;19929;-70
2023/05/20 02:30:16;;;;;;;;;;;;;;;20.62;43.58;102459.69;5032649;28;20344;-68
2023/05/20 02:32:42;;;;;;;;;;;;;;;20.63;43.36;102466.78;5039959;28;20313;-68
2023/05/20 02:35:07;;;;;;;;;;;;;;;20.62;43.50;102456.97;5052472;28;19976;-68
2023/05/20 02:37:33;;;;;;;;;;;;;;;20.63;43.49;102457.81;5033482;28;19924;-68
2023/05/20 02:39:58;;;;;;;;;;;;;;;20.61;43.29;102457.97;5035354;28;20013;-68
2023/05/20 02:42:23;;;;;;;;;;;;;;;20.60;43.28;102461.69;5027517;28;19913;-68
2023/05/20 02:44:48;;;;;;;;;;;;;;;20.60;43.50;102456.28;5052674;28;20464;-68
2023/05/20 02:47:14;;;;;;;;;;;;;;;20.59;43.43;102445.59;5044659;28;19919;-69
2023/05/20 02:49:39;;;;;;;;;;;;;;;20.58;43.25;102444.75;5052923;28;20397;-68
2023/05/20 02:52:04;;;;;;;;;;;;;;;20.59;43.50;102453.69;5044313;28;19916;-68
2023/05/20 02:54:30;;;;;;;;;;;;;;;20.57;43.34;102451.16;5054940;28;19917;-68
2023/05/20 02:56:55;;;;;;;;;;;;;;;20.57;43.52;102442.19;5046587;28;19913;-69
2023/05/20 02:59:20;;;;;;;;;;;;;;;20.57;43.68;102436.78;5054591;28;19914;-68
2023/05/20 03:01:45;;;;;;;;;;;;;;;20.55;43.53;102431.50;5050844;28;19924;-68
2023/05/20 03:04:11;;;;;;;;;;;;;;;20.55;43.52;102433.34;5051160;28;20432;-68
2023/05/20 03:06:37;;;;;;;;;;;;;;;20.55;43.40;102433.34;5051458;28;19924;-68
2023/05/20 03:09:02;;;;;;;;;;;;;;;20.53;43.56;102433.50;5055280;28;20003;-68
2023/05/20 03:11:27;;;;;;;;;;;;;;;20.53;43.67;102435.38;5047075;28;19924;-68
2023/05/20 03:13:52;;;;;;;;;;;;;;;20.52;43.65;102437.22;5038313;28;20020;-68
2023/05/20 03:16:17;;;;;;;;;;;;;;;20.52;43.29;102436.34;5045756;28;20380;-68
2023/05/20 03:18:43;;;;;;;;;;;;;;;20.51;43.48;102432.78;5044359;28;19921;-68
2023/05/20 03:21:08;;;;;;;;;;;;;;;20.50;43.24;102435.66;5039028;28;19921;-68
2023/05/20 03:23:33;;;;;;;;;;;;;;;20.50;43.62;102435.66;5033930;28;19920;-68
2023/05/20 03:25:59;;;;;;;;;;;;;;;20.48;43.31;102446.59;5052667;28;19963;-68
2023/05/20 03:28:24;;;;;;;;;;;;;;;20.47;43.54;102445.72;5050191;28;19919;-69
2023/05/20 03:30:49;;;;;;;;;;;;;;;20.47;43.60;102448.41;5047287;28;20011;-69
2023/05/20 03:33:14;;;;;;;;;;;;;;;20.47;43.29;102448.41;5033696;28;20380;-68
2023/05/20 03:35:40;;;;;;;;;;;;;;;20.46;43.49;102451.25;5037932;28;19948;-68
2023/05/20 03:38:05;;;;;;;;;;;;;;;20.45;43.71;102458.50;5049759;28;19917;-68
2023/05/20 03:40:30;;;;;;;;;;;;;;;20.44;43.37;102454.09;5052332;28;19946;-68
2023/05/20 03:42:55;;;;;;;;;;;;;;;20.44;43.25;102458.66;5055956;28;19913;-69
2023/05/20 03:45:21;;;;;;;;;;;;;;;20.43;43.49;102455.09;5047447;28;19917;-68
2023/05/20 03:47:46;;;;;;;;;;;;;;;20.42;43.53;102456.06;5041279;28;19971;-68
2023/05/20 03:50:11;;;;;;;;;;;;;;;20.43;43.60;102459.63;5025110;28;19936;-68
2023/05/20 03:52:37;;;;;;;;;;;;;;;20.42;43.29;102452.53;5057629;28;19948;-68
2023/05/20 03:55:03;;;;;;;;;;;;;;;20.41;43.37;102457.06;5034942;28;19917;-68
2023/05/20 03:57:28;;;;;;;;;;;;;;;20.39;43.39;102456.38;5033901;28;20016;-68
2023/05/20 03:59:53;;;;;;;;;;;;;;;20.38;43.29;102460.06;5047019;28;19917;-68
2023/05/20 04:02:18;;;;;;;;;;;;;;;20.39;43.30;102458.19;5020894;28;20396;-68
2023/05/20 04:04:44;;;;;;;;;;;;;;;20.38;43.48;102457.34;5050328;28;19913;-68
2023/05/20 04:07:09;;;;;;;;;;;;;;;20.37;43.30;102458.34;5045403;28;19917;-68
2023/05/20 04:09:34;;;;;;;;;;;;;;;20.37;43.29;102460.19;5056842;28;19921;-68
2023/05/20 04:11:59;;;;;;;;;;;;;;;20.36;43.42;102459.34;5032056;28;19920;-68
2023/05/20 04:14:25;;;;;;;;;;;;;;;20.36;43.57;102461.22;5039753;28;19925;-69
2023/05/20 04:16:51;;;;;;;;;;;;;;;20.36;43.28;102461.22;5042838;28;19985;-73
2023/05/20 04:19:18;;;;;;;;;;;;;;;20.34;43.64;102453.22;5049819;28;19921;-68
2023/05/20 04:21:43;;;;;;;;;;;;;;;20.35;43.77;102454.09;5053242;28;19928;-70
2023/05/20 04:24:08;;;;;;;;;;;;;;;20.35;43.87;102454.94;5044847;28;19960;-71
2023/05/20 04:26:34;;;;;;;;;;;;;;;20.33;43.78;102448.81;5038192;28;19923;-72
2023/05/20 04:29:02;;;;;;;;;;;;;;;20.35;43.98;102457.66;5050194;28;19998;-71
2023/05/20 04:31:28;;;;;;;;;;;;;;;20.34;44.25;102457.78;5053116;28;19917;-70
2023/05/20 04:33:53;;;;;;;;;;;;;;;20.35;44.15;102462.22;5049724;28;19919;-70
2023/05/20 04:36:19;;;;;;;;;;;;;;;20.34;44.11;102457.78;5054982;28;19919;-69
2023/05/20 04:38:44;;;;;;;;;;;;;;;20.34;44.07;102460.47;5050576;28;20440;-71
2023/05/20 04:41:10;;;;;;;;;;;;;;;20.34;44.22;102460.47;5045051;28;19928;-71
2023/05/20 04:43:37;;;;;;;;;;;;;;;20.36;44.42;102453.09;5026258;28;19980;-69
2023/05/20 04:46:04;;;;;;;;;;;;;;;20.35;44.50;102463.06;5044327;28;20124;-69
2023/05/20 04:48:30;;;;;;;;;;;;;;;20.35;44.53;102456.81;5035720;28;19987;-69
2023/05/20 04:50:55;;;;;;;;;;;;;;;20.36;44.87;102466.59;5035341;28;20527;-71
2023/05/20 04:53:22;;;;;;;;;;;;;;;20.37;44.75;102465.59;5034736;28;19970;-71
2023/05/20 04:55:48;;;;;;;;;;;;;;;20.36;44.75;102458.50;5032885;28;19924;-72
2023/05/20 04:58:16;;;;;;;;;;;;;;;20.37;45.01;102461.06;5020729;28;19913;-72
2023/05/20 05:00:42;;;;;;;;;;;;;;;20.36;44.84;102462.06;5050257;28;20523;-70
2023/05/20 05:03:07;;;;;;;;;;;;;;;20.36;45.00;102464.75;5044193;28;19920;-68
2023/05/20 05:05:36;;;;;;;;;;;;;;;20.36;45.20;102470.16;5035927;28;19946;-72
2023/05/20 05:08:05;;;;;;;;;;;;;;;20.36;45.16;102462.06;5032777;28;20466;-72
2023/05/20 05:10:31;;;;;;;;;;;;;;;20.36;45.16;102461.22;5053775;28;19963;-72
2023/05/20 05:12:56;;;;;;;;;;;;;;;20.36;44.97;102461.22;5043366;28;19968;-72
2023/05/20 05:15:21;;;;;;;;;;;;;;;20.35;45.36;102457.66;5035268;28;19925;-72
2023/05/20 05:17:46;;;;;;;;;;;;;;;20.37;45.14;102460.19;5037949;28;19917;-71
2023/05/20 05:20:12;;;;;;;;;;;;;;;20.36;45.09;102474.72;5047189;28;19977;-72
2023/05/20 05:22:38;;;;;;;;;;;;;;;20.35;45.16;102463.06;5052464;28;19943;-72
2023/05/20 05:25:04;;;;;;;;;;;;;;;20.36;45.48;102461.22;5056894;28;20006;-72
2023/05/20 05:27:29;;;;;;;;;;;;;;;20.35;45.25;102457.66;5038122;28;19913;-73
2023/05/20 05:29:55;;;;;;;;;;;;;;;20.35;45.33;102452.25;5032602;28;19913;-72
2023/05/20 05:32:20;;;;;;;;;;;;;;;20.36;45.59;102464.75;5052623;28;19980;-72
2023/05/20 05:34:45;;;;;;;;;;;;;;;20.36;45.40;102453.09;5032507;28;19913;-73
2023/05/20 05:37:10;;;;;;;;;;;;;;;20.36;45.51;102448.53;5054849;28;19971;-70
2023/05/20 05:39:36;;;;;;;;;;;;;;;20.36;45.44;102458.50;5048181;28;19917;-73
2023/05/20 05:42:02;;;;;;;;;;;;;;;20.36;45.72;102451.25;5036570;28;19919;-71
2023/05/20 05:44:27;;;;;;;;;;;;;;;20.36;45.66;102455.81;5043873;28;19923;-71
2023/05/20 05:46:52;;;;;;;;;;;;;;;20.36;45.66;102453.09;5048728;28;19921;-72
2023/05/20 05:49:17;;;;;;;;;;;;;;;20.36;45.71;102450.41;5051911;28;20298;-71
2023/05/20 05:51:42;;;;;;;;;;;;;;;20.36;45.78;102458.50;5052572;28;20421;-73
2023/05/20 05:54:07;;;;;;;;;;;;;;;20.35;45.72;102460.34;5028776;28;19920;-74
2023/05/20 05:56:33;;;;;;;;;;;;;;;20.36;45.82;102456.66;5033630;28;19913;-74
2023/05/20 05:58:58;;;;;;;;;;;;;;;20.35;45.63;102452.25;5053363;28;19917;-74
2023/05/20 06:01:23;;;;;;;;;;;;;;;20.35;45.72;102454.94;5052755;28;19991;-73
2023/05/20 06:03:48;;;;;;;;;;;;;;;20.36;45.58;102461.22;5057266;28;19919;-72
2023/05/20 06:06:13;;;;;;;;;;;;;;;20.36;45.79;102462.06;5031447;28;19912;-73
2023/05/20 06:08:39;;;;;;;;;;;;;;;20.36;45.57;102462.06;5026035;28;19923;-69
2023/05/20 06:11:04;;;;;;;;;;;;;;;20.35;45.89;102460.34;5057624;28;19913;-69
2023/05/20 06:13:29;;;;;;;;;;;;;;;20.35;45.70;102459.50;5055103;28;19932;-68
2023/05/20 06:15:54;;;;;;;;;;;;;;;20.35;45.66;102462.22;5043579;28;20015;-72
2023/05/20 06:18:20;;;;;;;;;;;;;;;20.34;45.51;102460.47;5047861;28;19991;-69
2023/05/20 06:20:45;;;;;;;;;;;;;;;20.33;45.50;102462.31;5053776;28;19952;-72
2023/05/20 06:23:10;;;;;;;;;;;;;;;20.33;45.52;102456.94;5053345;28;19928;-74
2023/05/20 06:25:35;;;;;;;;;;;;;;;20.32;45.43;102449.81;5042855;28;19929;-73
2023/05/20 06:28:00;;;;;;;;;;;;;;;20.32;45.48;102449.81;5050913;28;19923;-69
2023/05/20 06:30:25;;;;;;;;;;;;;;;20.32;45.52;102444.41;5038156;28;19924;-70
2023/05/20 06:32:51;;;;;;;;;;;;;;;20.33;45.18;102442.56;5055636;28;19917;-70
2023/05/20 06:35:16;;;;;;;;;;;;;;;20.33;45.10;102445.28;5048583;28;19917;-70
2023/05/20 06:37:41;;;;;;;;;;;;;;;20.33;45.28;102442.56;5055444;28;19921;-70
2023/05/20 06:40:07;;;;;;;;;;;;;;;20.32;44.91;102440.88;5051959;28;19925;-70
2023/05/20 06:42:32;;;;;;;;;;;;;;;20.31;44.95;102442.72;5062020;28;19924;-70
2023/05/20 06:44:57;;;;;;;;;;;;;;;20.32;45.06;102443.56;5052337;28;19940;-70
2023/05/20 06:47:23;;;;;;;;;;;;;;;20.31;44.99;102440.03;5041073;28;19976;-70
2023/05/20 06:49:48;;;;;;;;;;;;;;;20.31;45.04;102441.88;5051870;28;19980;-70
2023/05/20 06:52:13;;;;;;;;;;;;;;;20.30;45.03;102438.28;5038760;28;19913;-71
2023/05/20 06:54:41;;;;;;;;;;;;;;;20.31;44.86;102441.88;5053734;28;19921;-69
2023/05/20 06:57:09;;;;;;;;;;;;;;;20.31;44.96;102431.06;5059555;28;19917;-69
2023/05/20 06:59:35;;;;;;;;;;;;;;;20.31;45.04;102429.22;5055762;28;19913;-69
2023/05/20 07:02:00;;;;;;;;;;;;;;;20.31;44.80;102428.38;5032379;28;19988;-68
2023/05/20 07:04:25;;;;;;;;;;;;;;;20.30;44.70;102419.38;5042284;28;19917;-68
2023/05/20 07:06:51;;;;;;;;;;;;;;;20.31;44.66;102420.25;5034135;28;19917;-69
2023/05/20 07:09:16;;;;;;;;;;;;;;;20.31;44.85;102422.97;5056701;28;19928;-70
2023/05/20 07:11:41;;;;;;;;;;;;;;;20.30;44.72;102423.94;5055037;28;20330;-69
2023/05/20 07:14:07;;;;;;;;;;;;;;;20.30;44.80;102426.63;5052778;28;19932;-69
2023/05/20 07:16:33;;;;;;;;;;;;;;;20.30;44.80;102426.63;5052482;28;19916;-69
2023/05/20 07:18:59;;;;;;;;;;;;;;;20.29;44.93;102431.19;5055003;28;20382;-69
2023/05/20 07:21:24;;;;;;;;;;;;;;;20.30;44.65;102427.47;5032947;28;19924;-68
2023/05/20 07:23:49;;;;;;;;;;;;;;;20.29;44.65;102419.53;5051082;28;19917;-69
2023/05/20 07:26:15;;;;;;;;;;;;;;;20.30;44.59;102418.53;5051763;28;19916;-68
2023/05/20 07:28:40;;;;;;;;;;;;;;;20.29;44.66;102416.84;5032326;28;19963;-68
2023/05/20 07:31:05;;;;;;;;;;;;;;;20.29;44.63;102409.56;5043411;28;19924;-68
2023/05/20 07:33:31;;;;;;;;;;;;;;;20.29;44.72;102409.56;5057307;28;19991;-68
2023/05/20 07:35:56;;;;;;;;;;;;;;;20.29;44.80;102409.56;5041098;28;20401;-69
2023/05/20 07:38:22;;;;;;;;;;;;;;;20.29;44.61;102404.19;5052559;28;19919;-68
2023/05/20 07:40:47;;;;;;;;;;;;;;;20.29;44.67;102401.47;5034707;28;19936;-68
2023/05/20 07:43:12;;;;;;;;;;;;;;;20.30;44.80;102402.31;5055699;28;19921;-68
2023/05/20 07:45:37;;;;;;;;;;;;;;;20.30;44.78;102400.47;5035805;28;19948;-68
2023/05/20 07:48:03;;;;;;;;;;;;;;;20.29;44.90;102406.88;5053420;28;19917;-68
2023/05/20 07:50:28;;;;;;;;;;;;;;;20.29;44.90;102396.06;5052935;28;20365;-68
2023/05/20 07:52:53;;;;;;;;;;;;;;;20.31;44.76;102396.81;5052176;28;19927;-68
2023/05/20 07:55:18;;;;;;;;;;;;;;;20.30;44.87;102392.38;5029690;28;19927;-68
2023/05/20 07:57:44;;;;;;;;;;;;;;;20.31;44.79;102395.94;5035306;28;19917;-68
2023/05/20 08:00:11;;;;;;;;;;;;;;;20.31;44.57;102391.41;5043109;28;19921;-68
2023/05/20 08:02:36;;;;;;;;;;;;;;;20.32;44.50;102394.94;5052048;28;19917;-69
2023/05/20 08:05:01;;;;;;;;;;;;;;;20.33;44.79;102391.25;5042613;28;19972;-71
2023/05/20 08:07:26;;;;;;;;;;;;;;;20.32;44.71;102382.28;5055397;28;19923;-68
2023/05/20 08:09:51;;;;;;;;;;;;;;;20.32;44.50;102382.28;5031640;28;19981;-69
2023/05/20 08:12:16;;;;;;;;;;;;;;;20.32;44.86;102379.59;5052799;28;19925;-69
2023/05/20 08:14:43;;;;;;;;;;;;;;;20.33;44.73;102375.03;5042951;28;19944;-70
2023/05/20 08:17:08;;;;;;;;;;;;;;;20.33;44.63;102375.88;5053717;28;19924;-69
2023/05/20 08:19:33;;;;;;;;;;;;;;;20.33;44.59;102388.53;5051079;28;19924;-68
2023/05/20 08:21:58;;;;;;;;;;;;;;;20.33;44.88;102377.75;5053795;28;19983;-69
2023/05/20 08:24:23;;;;;;;;;;;;;;;20.33;44.62;102380.44;5033955;28;19956;-68
2023/05/20 08:26:49;;;;;;;;;;;;;;;20.32;44.78;102371.50;5057082;28;19917;-69
2023/05/20 08:29:14;;;;;;;;;;;;;;;20.33;44.76;102370.47;5050091;28;19917;-69
2023/05/20 08:31:39;;;;;;;;;;;;;;;20.33;44.86;102375.88;5056401;28;19917;-69
2023/05/20 08:34:04;;;;;;;;;;;;;;;20.35;44.89;102373.06;5049387;28;19916;-69
2023/05/20 08:36:29;;;;;;;;;;;;;;;20.34;44.68;102380.28;5049012;28;19913;-69
2023/05/20 08:38:55;;;;;;;;;;;;;;;20.33;44.72;102375.88;5055160;28;19917;-69
2023/05/20 08:41:21;;;;;;;;;;;;;;;20.34;44.76;102368.63;5050023;28;19982;-69
2023/05/20 08:43:47;;;;;;;;;;;;;;;20.34;44.98;102366.78;5053932;28;19917;-69
2023/05/20 08:46:12;;;;;;;;;;;;;;;20.34;44.83;102355.13;5027692;28;19921;-69
2023/05/20 08:48:37;;;;;;;;;;;;;;;20.33;44.75;102367.78;5034942;28;20325;-69
2023/05/20 08:51:03;;;;;;;;;;;;;;;20.34;44.97;102364.06;5042787;28;20365;-69
2023/05/20 08:53:28;;;;;;;;;;;;;;;20.35;44.68;102363.09;5036463;28;19939;-69
2023/05/20 08:55:56;;;;;;;;;;;;;;;20.35;44.74;102355.00;5038811;28;19920;-69
2023/05/20 08:58:22;;;;;;;;;;;;;;;20.35;44.83;102354.16;5041616;28;19924;-69
2023/05/20 09:00:47;;;;;;;;;;;;;;;20.36;45.00;102358.56;5054056;28;19952;-69
2023/05/20 09:03:12;;;;;;;;;;;;;;;20.35;44.75;102355.00;5050041;28;19920;-69
2023/05/20 09:05:37;;;;;;;;;;;;;;;20.36;44.75;102353.16;5036341;28;19921;-69
2023/05/20 09:08:03;;;;;;;;;;;;;;;20.36;45.07;102345.03;5043602;28;19919;-69
2023/05/20 09:10:28;;;;;;;;;;;;;;;20.35;44.85;102352.31;5050594;28;19952;-69
2023/05/20 09:12:54;;;;;;;;;;;;;;;20.36;45.02;102345.03;5037364;28;19928;-69
2023/05/20 09:15:19;;;;;;;;;;;;;;;20.36;44.89;102340.50;5052070;28;19932;-69
2023/05/20 09:17:48;;;;;;;;;;;;;;;20.36;44.89;102356.69;5050518;28;20393;-69
2023/05/20 09:20:13;;;;;;;;;;;;;;;19.83;44.86;102246.44;5054447;28;19960;-69
2023/05/20 09:22:39;;;;;;;;;;;;;;;20.37;44.73;102350.28;5041993;28;19921;-69
2023/05/20 09:25:05;;;;;;;;;;;;;;;20.37;45.01;102344.03;5055666;28;19917;-69
2023/05/20 09:27:30;;;;;;;;;;;;;;;20.38;44.84;102340.34;5038023;28;19913;-69
2023/05/20 09:29:55;;;;;;;;;;;;;;;20.38;44.82;102330.38;5043660;28;19939;-69
2023/05/20 09:32:23;;;;;;;;;;;;;;;20.38;44.81;102330.38;5039444;28;19917;-69
2023/05/20 09:34:48;;;;;;;;;;;;;;;20.39;45.13;102331.22;5052745;28;19940;-69
2023/05/20 09:37:13;;;;;;;;;;;;;;;20.39;45.12;102326.72;5045117;28;19948;-69
2023/05/20 09:39:59;;;;;;;;;;;;;;;20.41;44.80;102337.34;5035397;28;19920;-70
2023/05/20 09:42:29;;;;;;;;;;;;;;;20.40;44.89;102325.69;5032490;28;19932;-70
2023/05/20 09:44:57;;;;;;;;;;;;;;;20.41;45.06;102318.44;5053509;28;19920;-70
2023/05/20 09:47:23;;;;;;;;;;;;;;;20.42;45.29;102303.94;5033214;28;19948;-70
2023/05/20 09:49:49;;;;;;;;;;;;;;;20.42;45.16;102315.59;5053614;28;19917;-69
2023/05/20 09:52:14;;;;;;;;;;;;;;;20.43;45.16;102319.13;5031380;28;19924;-69
2023/05/20 09:54:40;;;;;;;;;;;;;;;20.43;45.18;102306.50;5041738;28;19935;-69
2023/05/20 09:57:06;;;;;;;;;;;;;;;20.44;45.44;102310.06;5029363;28;19920;-70
2023/05/20 09:59:31;;;;;;;;;;;;;;;20.44;45.35;102307.38;5056186;28;19917;-70
2023/05/20 10:01:56;;;;;;;;;;;;;;;20.44;45.25;102301.97;5053927;28;19936;-70
2023/05/20 10:04:21;;;;;;;;;;;;;;;20.44;45.43;102308.22;5050721;28;19917;-70
2023/05/20 10:07:10;;;;;;;;;;;;;;;20.45;45.56;102309.91;5050676;28;19970;-70
2023/05/20 10:09:42;;;;;;;;;;;;;;;20.45;45.29;102304.50;5033441;28;19917;-69
2023/05/20 10:12:11;;;;;;;;;;;;;;;20.47;45.41;102294.44;5051437;28;20452;-67
2023/05/20 10:14:42;;;;;;;;;;;;;;;20.49;45.44;102298.84;5033805;28;19920;-70
2023/05/20 10:17:26;;;;;;;;;;;;;;;20.50;45.23;102289.75;5036190;28;20012;-73
2023/05/20 10:19:58;;;;;;;;;;;;;;;20.51;45.37;102292.28;5054022;28;19917;-73
2023/05/20 10:22:27;;;;;;;;;;;;;;;20.54;45.68;102299.25;5036268;28;19917;-72
2023/05/20 10:24:57;;;;;;;;;;;;;;;20.54;46.11;102296.56;5032268;28;20519;-72
2023/05/20 10:27:22;;;;;;;;;;;;;;;20.54;45.96;102285.75;5035851;28;19912;-72
2023/05/20 10:29:51;;;;;;;;;;;;;;;20.54;46.00;102283.91;5042507;28;19927;-72
2023/05/20 10:32:34;;;;;;;;;;;;;;;20.55;46.13;102282.91;5027778;28;19947;-72
2023/05/20 10:35:00;;;;;;;;;;;;;;;20.57;46.30;102280.91;5037444;28;19981;-71
2023/05/20 10:37:26;;;;;;;;;;;;;;;20.58;46.29;102268.25;5034356;28;19925;-69
2023/05/20 10:39:51;;;;;;;;;;;;;;;20.59;46.35;102256.44;5055838;28;19917;-68
2023/05/20 10:42:16;;;;;;;;;;;;;;;20.60;46.30;102260.84;5036403;28;19917;-68
2023/05/20 10:44:42;;;;;;;;;;;;;;;20.59;45.91;102268.09;5035547;28;19939;-69
2023/05/20 10:47:07;;;;;;;;;;;;;;;20.62;46.00;102256.16;5041136;28;19936;-69
2023/05/20 10:49:33;;;;;;;;;;;;;;;20.63;46.45;102244.34;5040775;28;19917;-72
2023/05/20 10:51:59;;;;;;;;;;;;;;;20.63;46.56;102247.03;5054498;28;20008;-70
2023/05/20 10:54:24;;;;;;;;;;;;;;;20.63;46.58;102257.84;5047591;28;19921;-70
2023/05/20 10:56:50;;;;;;;;;;;;;;;20.64;46.50;102248.72;5037350;28;19921;-70
2023/05/20 10:59:15;;;;;;;;;;;;;;;20.65;46.83;102251.31;5058107;28;19913;-70
2023/05/20 11:01:41;;;;;;;;;;;;;;;20.66;46.45;102246.75;5039255;28;20336;-71
2023/05/20 11:04:06;;;;;;;;;;;;;;;20.67;46.74;102234.94;5055116;28;19924;-71
2023/05/20 11:06:32;;;;;;;;;;;;;;;20.68;46.70;102242.88;5041145;28;19924;-71
2023/05/20 11:09:02;;;;;;;;;;;;;;;20.70;46.68;102240.06;5034423;28;20148;-71
2023/05/20 11:11:28;;;;;;;;;;;;;;;20.70;46.79;102250.88;5045910;28;19921;-70
2023/05/20 11:13:55;;;;;;;;;;;;;;;20.72;46.77;102244.28;5057839;28;19921;-70
2023/05/20 11:16:23;;;;;;;;;;;;;;;20.73;46.78;102234.34;5038889;28;19956;-71
2023/05/20 11:18:49;;;;;;;;;;;;;;;20.75;46.26;102245.84;5036603;28;19929;-70
2023/05/20 11:21:14;;;;;;;;;;;;;;;20.73;46.69;102250.56;5061320;28;19973;-71
2023/05/20 11:23:40;;;;;;;;;;;;;;;20.74;46.63;102238.75;5057066;28;19992;-70
2023/05/20 11:26:05;;;;;;;;;;;;;;;20.75;46.70;102226.94;5035864;28;19917;-71
2023/05/20 11:28:32;;;;;;;;;;;;;;;20.74;46.72;102229.81;5057314;28;19917;-71
2023/05/20 11:30:58;;;;;;;;;;;;;;;20.75;46.77;102218.81;5055999;28;19920;-71
2023/05/20 11:33:24;;;;;;;;;;;;;;;20.76;46.55;102217.81;5025616;28;19917;-71
2023/05/20 11:35:53;;;;;;;;;;;;;;;20.77;46.87;102224.91;5035142;28;19913;-71
2023/05/20 11:38:18;;;;;;;;;;;;;;;20.78;46.55;102221.25;5037979;28;19921;-70
2023/05/20 11:40:53;;;;;;;;;;;;;;;20.79;46.54;102220.22;5040091;28;19929;-70
2023/05/20 11:43:19;;;;;;;;;;;;;;;20.80;46.63;102218.38;5040442;28;19948;-69
2023/05/20 11:45:44;;;;;;;;;;;;;;;20.81;46.91;102217.38;5050260;28;19917;-70
2023/05/20 11:48:11;;;;;;;;;;;;;;;20.81;46.55;102210.09;5055428;28;20286;-70
2023/05/20 11:50:39;;;;;;;;;;;;;;;20.81;46.56;102209.25;5037117;28;20052;-69
2023/05/20 11:53:05;;;;;;;;;;;;;;;20.81;46.65;102204.69;5047444;28;19924;-69
2023/05/20 11:55:31;;;;;;;;;;;;;;;20.82;46.75;102192.91;5040776;28;19913;-69
2023/05/20 11:57:56;;;;;;;;;;;;;;;20.83;46.60;102193.75;5050644;28;20005;-69
2023/05/20 12:00:22;;;;;;;;;;;;;;;20.84;46.66;102192.75;5050349;28;19917;-69
2023/05/20 12:02:47;;;;;;;;;;;;;;;20.84;46.64;102195.47;5050521;28;20382;-69
2023/05/20 12:05:13;;;;;;;;;;;;;;;20.84;46.72;102188.19;5052062;28;20362;-70
2023/05/20 12:07:38;;;;;;;;;;;;;;;20.85;46.39;102187.19;5021657;28;19986;-69
2023/05/20 12:10:03;;;;;;;;;;;;;;;20.86;46.64;102188.91;5051385;28;19913;-69
2023/05/20 12:12:28;;;;;;;;;;;;;;;20.87;46.71;102185.19;5043046;28;20324;-70
2023/05/20 12:14:54;;;;;;;;;;;;;;;20.90;46.36;102181.34;5054086;28;20027;-70
2023/05/20 12:17:19;;;;;;;;;;;;;;;20.90;46.30;102174.09;5039309;28;19968;-70
2023/05/20 12:19:44;;;;;;;;;;;;;;;20.91;46.68;102173.09;5050415;28;19913;-70
2023/05/20 12:22:10;;;;;;;;;;;;;;;20.93;46.59;102164.81;5056776;28;19984;-70
2023/05/20 12:24:37;;;;;;;;;;;;;;;20.95;46.45;102196.09;5031252;28;20077;-70
2023/05/20 12:27:05;;;;;;;;;;;;;;;20.97;46.62;102177.88;5051081;28;19917;-70
2023/05/20 12:29:30;;;;;;;;;;;;;;;21.00;46.65;102167.75;5052075;28;19917;-70